createdAt,value
2018-09-21T00:00:00.818Z,0
2018-09-21T00:00:32.890Z,0
2018-09-21T00:01:04.979Z,0
2018-09-21T00:01:37.083Z,0
2018-09-21T00:02:09.154Z,0
2018-09-21T00:02:41.200Z,0
2018-09-21T00:03:13.240Z,0
2018-09-21T00:03:45.316Z,0
2018-09-21T00:04:17.478Z,0
2018-09-21T00:04:49.564Z,0
2018-09-21T00:05:21.625Z,0
2018-09-21T00:05:53.681Z,0
2018-09-21T00:06:25.748Z,0
2018-09-21T00:06:57.845Z,0
2018-09-21T00:07:29.959Z,0
2018-09-21T00:08:02.042Z,0
2018-09-21T00:08:34.152Z,0
2018-09-21T00:09:06.262Z,0
2018-09-21T00:09:38.252Z,0
2018-09-21T00:10:10.275Z,0
2018-09-21T00:10:42.360Z,0
2018-09-21T00:11:14.476Z,0
2018-09-21T00:11:46.495Z,0
2018-09-21T00:12:18.553Z,0
2018-09-21T00:12:50.638Z,0
2018-09-21T00:13:22.700Z,0
2018-09-21T00:13:54.781Z,0
2018-09-21T00:14:26.820Z,0
2018-09-21T00:14:58.894Z,0
2018-09-21T00:15:30.970Z,0
2018-09-21T00:16:03.046Z,0
2018-09-21T00:16:35.124Z,0
2018-09-21T00:17:07.211Z,0
2018-09-21T00:17:39.276Z,0
2018-09-21T00:18:11.340Z,0
2018-09-21T00:18:43.404Z,0
2018-09-21T00:19:15.451Z,0
2018-09-21T00:19:47.516Z,0
2018-09-21T00:20:19.753Z,0
2018-09-21T00:20:51.922Z,0
2018-09-21T00:21:24.118Z,0
2018-09-21T00:21:56.213Z,0
2018-09-21T00:22:28.386Z,0
2018-09-21T00:23:00.576Z,0
2018-09-21T00:23:32.706Z,0
2018-09-21T00:24:04.771Z,0
2018-09-21T00:24:36.868Z,0
2018-09-21T00:25:08.929Z,0
2018-09-21T00:25:40.988Z,0
2018-09-21T00:26:13.018Z,0
2018-09-21T00:26:45.086Z,0
2018-09-21T00:27:17.143Z,0
2018-09-21T00:27:49.216Z,0
2018-09-21T00:28:21.347Z,0
2018-09-21T00:28:53.362Z,0
2018-09-21T00:29:25.456Z,0
2018-09-21T00:29:57.527Z,0
2018-09-21T00:30:29.567Z,0
2018-09-21T00:31:01.623Z,0
2018-09-21T00:31:33.703Z,0
2018-09-21T00:32:05.842Z,0
2018-09-21T00:32:37.938Z,0
2018-09-21T00:33:10.024Z,0
2018-09-21T00:33:42.070Z,0
2018-09-21T00:34:14.150Z,0
2018-09-21T00:34:46.231Z,0
2018-09-21T00:35:18.346Z,0
2018-09-21T00:35:50.424Z,0
2018-09-21T00:36:22.485Z,0
2018-09-21T00:36:54.576Z,0
2018-09-21T00:37:26.708Z,0
2018-09-21T00:37:58.809Z,0
2018-09-21T00:38:30.850Z,0
2018-09-21T00:39:02.879Z,0
2018-09-21T00:39:34.978Z,0
2018-09-21T00:40:07.053Z,0
2018-09-21T00:40:39.065Z,0
2018-09-21T00:41:11.121Z,0
2018-09-21T00:41:43.166Z,0
2018-09-21T00:42:15.246Z,0
2018-09-21T00:42:47.378Z,0
2018-09-21T00:43:19.463Z,0
2018-09-21T00:43:51.497Z,0
2018-09-21T00:44:23.583Z,0
2018-09-21T00:44:55.656Z,0
2018-09-21T00:45:27.728Z,0
2018-09-21T00:45:59.798Z,0
2018-09-21T00:46:31.933Z,0
2018-09-21T00:47:04.064Z,0
2018-09-21T00:47:36.121Z,0
2018-09-21T00:48:08.128Z,0
2018-09-21T00:48:40.209Z,0
2018-09-21T00:49:12.295Z,0
2018-09-21T00:49:44.384Z,0
2018-09-21T00:50:16.421Z,0
2018-09-21T00:50:48.463Z,0
2018-09-21T00:51:20.539Z,0
2018-09-21T00:51:52.611Z,0
2018-09-21T00:52:24.675Z,0
2018-09-21T00:52:56.766Z,0
2018-09-21T00:53:28.827Z,0
2018-09-21T00:54:00.845Z,0
2018-09-21T00:54:32.952Z,0
2018-09-21T00:55:04.999Z,0
2018-09-21T00:55:37.080Z,0
2018-09-21T00:56:09.122Z,0
2018-09-21T00:56:41.196Z,0
2018-09-21T00:57:13.277Z,0
2018-09-21T00:57:45.354Z,0
2018-09-21T00:58:17.443Z,0
2018-09-21T00:58:49.520Z,0
2018-09-21T00:59:21.568Z,0
2018-09-21T00:59:53.640Z,0
2018-09-21T01:00:25.813Z,0
2018-09-21T01:00:57.853Z,0
2018-09-21T01:01:29.895Z,0
2018-09-21T01:02:01.987Z,0
2018-09-21T01:02:34.116Z,0
2018-09-21T01:03:07.036Z,0
2018-09-21T01:03:39.064Z,0
2018-09-21T01:04:11.162Z,0
2018-09-21T01:04:43.226Z,0
2018-09-21T01:05:15.260Z,0
2018-09-21T01:05:47.374Z,0
2018-09-21T01:06:19.471Z,0
2018-09-21T01:06:51.538Z,0
2018-09-21T01:07:23.620Z,0
2018-09-21T01:07:55.641Z,0
2018-09-21T01:08:27.718Z,0
2018-09-21T01:08:59.751Z,0
2018-09-21T01:09:31.811Z,0
2018-09-21T01:10:03.894Z,0
2018-09-21T01:10:35.926Z,0
2018-09-21T01:11:08.000Z,0
2018-09-21T01:11:40.036Z,0
2018-09-21T01:12:12.098Z,0
2018-09-21T01:12:44.113Z,0
2018-09-21T01:13:16.984Z,0
2018-09-21T01:13:49.049Z,0
2018-09-21T01:14:21.074Z,0
2018-09-21T01:14:53.086Z,0
2018-09-21T01:15:25.160Z,0
2018-09-21T01:15:57.229Z,0
2018-09-21T01:16:29.317Z,0
2018-09-21T01:17:01.367Z,0
2018-09-21T01:17:33.454Z,0
2018-09-21T01:18:05.533Z,0
2018-09-21T01:18:37.613Z,0
2018-09-21T01:19:09.667Z,0
2018-09-21T01:19:41.791Z,0
2018-09-21T01:20:13.839Z,0
2018-09-21T01:20:45.925Z,0
2018-09-21T01:21:18.003Z,0
2018-09-21T01:21:50.055Z,0
2018-09-21T01:22:22.095Z,0
2018-09-21T01:22:54.169Z,0
2018-09-21T01:23:26.387Z,0
2018-09-21T01:23:58.539Z,0
2018-09-21T01:24:30.597Z,0
2018-09-21T01:25:02.603Z,0
2018-09-21T01:25:34.653Z,0
2018-09-21T01:26:06.797Z,0
2018-09-21T01:26:38.869Z,0
2018-09-21T01:27:10.922Z,0
2018-09-21T01:27:42.954Z,0
2018-09-21T01:28:14.989Z,0
2018-09-21T01:28:47.138Z,0
2018-09-21T01:29:19.280Z,0
2018-09-21T01:29:51.487Z,0
2018-09-21T01:30:23.537Z,0
2018-09-21T01:30:55.570Z,0
2018-09-21T01:31:27.630Z,0
2018-09-21T01:31:59.669Z,0
2018-09-21T01:32:31.704Z,0
2018-09-21T01:33:03.794Z,0
2018-09-21T01:33:35.804Z,0
2018-09-21T01:34:07.841Z,0
2018-09-21T01:34:39.875Z,0
2018-09-21T01:35:11.963Z,0
2018-09-21T01:35:44.047Z,0
2018-09-21T01:36:16.148Z,0
2018-09-21T01:36:48.180Z,0
2018-09-21T01:37:20.296Z,0
2018-09-21T01:37:52.307Z,0
2018-09-21T01:38:24.393Z,0
2018-09-21T01:38:56.477Z,0
2018-09-21T01:39:28.538Z,0
2018-09-21T01:40:01.247Z,0
2018-09-21T01:40:33.351Z,0
2018-09-21T01:41:06.753Z,0
2018-09-21T01:41:38.797Z,0
2018-09-21T01:42:10.862Z,0
2018-09-21T01:42:42.941Z,0
2018-09-21T01:43:15.071Z,0
2018-09-21T01:43:47.133Z,0
2018-09-21T01:44:19.181Z,0
2018-09-21T01:44:51.229Z,0
2018-09-21T01:45:23.283Z,0
2018-09-21T01:45:55.347Z,0
2018-09-21T01:46:27.408Z,0
2018-09-21T01:46:59.478Z,0
2018-09-21T01:47:31.595Z,0
2018-09-21T01:48:03.660Z,0
2018-09-21T01:48:35.750Z,0
2018-09-21T01:49:07.891Z,0
2018-09-21T01:49:39.936Z,0
2018-09-21T01:50:12.027Z,0
2018-09-21T01:50:44.082Z,0
2018-09-21T01:51:16.118Z,0
2018-09-21T01:51:48.187Z,0
2018-09-21T01:52:20.262Z,0
2018-09-21T01:52:52.307Z,0
2018-09-21T01:53:24.407Z,0
2018-09-21T01:53:56.510Z,0
2018-09-21T01:54:28.601Z,0
2018-09-21T01:55:00.781Z,0
2018-09-21T01:55:32.774Z,0
2018-09-21T01:56:04.846Z,0
2018-09-21T01:56:36.896Z,0
2018-09-21T01:57:09.009Z,0
2018-09-21T01:57:41.114Z,0
2018-09-21T01:58:13.171Z,0
2018-09-21T01:58:45.209Z,0
2018-09-21T01:59:17.277Z,0
2018-09-21T01:59:50.335Z,0
2018-09-21T02:00:22.429Z,0
2018-09-21T02:00:54.496Z,0
2018-09-21T02:01:26.598Z,0
2018-09-21T02:01:58.665Z,0
2018-09-21T02:02:30.782Z,0
2018-09-21T02:03:02.857Z,0
2018-09-21T02:03:34.917Z,0
2018-09-21T02:04:06.996Z,0
2018-09-21T02:04:39.069Z,0
2018-09-21T02:05:11.203Z,0
2018-09-21T02:05:43.377Z,0
2018-09-21T02:06:15.497Z,0
2018-09-21T02:06:47.580Z,0
2018-09-21T02:07:19.683Z,0
2018-09-21T02:07:51.786Z,0
2018-09-21T02:08:23.888Z,0
2018-09-21T02:08:55.980Z,0
2018-09-21T02:09:28.066Z,0
2018-09-21T02:10:00.095Z,0
2018-09-21T02:10:32.226Z,0
2018-09-21T02:11:04.303Z,0
2018-09-21T02:11:36.369Z,0
2018-09-21T02:12:08.439Z,0
2018-09-21T02:12:40.580Z,0
2018-09-21T02:13:12.651Z,0
2018-09-21T02:13:44.689Z,0
2018-09-21T02:14:16.756Z,0
2018-09-21T02:14:48.859Z,0
2018-09-21T02:15:20.935Z,0
2018-09-21T02:15:53.057Z,0
2018-09-21T02:16:25.132Z,0
2018-09-21T02:16:57.189Z,0
2018-09-21T02:17:29.260Z,0
2018-09-21T02:18:01.298Z,0
2018-09-21T02:18:33.434Z,0
2018-09-21T02:19:05.492Z,0
2018-09-21T02:19:37.576Z,0
2018-09-21T02:20:09.647Z,0
2018-09-21T02:20:41.703Z,0
2018-09-21T02:21:13.911Z,0
2018-09-21T02:21:46.053Z,0
2018-09-21T02:22:18.093Z,0
2018-09-21T02:22:50.185Z,0
2018-09-21T02:23:22.848Z,0
2018-09-21T02:23:54.940Z,0
2018-09-21T02:24:27.006Z,0
2018-09-21T02:24:59.116Z,0
2018-09-21T02:25:31.150Z,0
2018-09-21T02:26:03.227Z,0
2018-09-21T02:26:35.325Z,0
2018-09-21T02:27:07.575Z,0
2018-09-21T02:27:39.662Z,0
2018-09-21T02:28:11.739Z,0
2018-09-21T02:28:43.785Z,0
2018-09-21T02:29:15.816Z,0
2018-09-21T02:29:47.893Z,0
2018-09-21T02:30:19.984Z,0
2018-09-21T02:30:52.066Z,0
2018-09-21T02:31:24.169Z,0
2018-09-21T02:31:56.222Z,0
2018-09-21T02:32:28.302Z,0
2018-09-21T02:33:00.399Z,0
2018-09-21T02:33:32.445Z,0
2018-09-21T02:34:04.551Z,0
2018-09-21T02:34:36.616Z,0
2018-09-21T02:35:08.837Z,0
2018-09-21T02:35:40.916Z,0
2018-09-21T02:36:12.952Z,0
2018-09-21T02:36:45.025Z,0
2018-09-21T02:37:17.075Z,0
2018-09-21T02:37:49.211Z,0
2018-09-21T02:38:21.262Z,0
2018-09-21T02:38:53.342Z,0
2018-09-21T02:39:25.395Z,0
2018-09-21T02:39:57.563Z,0
2018-09-21T02:40:29.641Z,0
2018-09-21T02:41:01.807Z,0
2018-09-21T02:41:34.210Z,0
2018-09-21T02:42:06.329Z,0
2018-09-21T02:42:38.455Z,0
2018-09-21T02:43:10.537Z,0
2018-09-21T02:43:42.622Z,0
2018-09-21T02:44:14.648Z,0
2018-09-21T02:44:46.653Z,0
2018-09-21T02:45:18.724Z,0
2018-09-21T02:45:50.791Z,0
2018-09-21T02:46:22.823Z,0
2018-09-21T02:46:54.832Z,0
2018-09-21T02:47:26.888Z,0
2018-09-21T02:47:58.876Z,0
2018-09-21T02:48:31.004Z,0
2018-09-21T02:49:03.181Z,0
2018-09-21T02:49:35.291Z,0
2018-09-21T02:50:07.309Z,0
2018-09-21T02:50:39.375Z,0
2018-09-21T02:51:11.498Z,0
2018-09-21T02:51:43.599Z,0
2018-09-21T02:52:16.595Z,0
2018-09-21T02:52:48.668Z,0
2018-09-21T02:53:20.814Z,0
2018-09-21T02:53:52.873Z,0
2018-09-21T02:54:24.933Z,0
2018-09-21T02:54:56.994Z,0
2018-09-21T02:55:29.046Z,0
2018-09-21T02:56:01.172Z,0
2018-09-21T02:56:33.264Z,0
2018-09-21T02:57:05.400Z,0
2018-09-21T02:57:37.597Z,0
2018-09-21T02:58:09.726Z,0
2018-09-21T02:58:41.746Z,0
2018-09-21T02:59:13.791Z,0
2018-09-21T02:59:45.893Z,0
2018-09-21T03:00:18.026Z,0
2018-09-21T03:00:50.773Z,0
2018-09-21T03:01:22.997Z,0
2018-09-21T03:01:55.049Z,0
2018-09-21T03:02:27.064Z,0
2018-09-21T03:02:59.125Z,0
2018-09-21T03:03:31.216Z,0
2018-09-21T03:04:03.350Z,0
2018-09-21T03:04:35.414Z,0
2018-09-21T03:05:07.516Z,0
2018-09-21T03:05:39.552Z,0
2018-09-21T03:06:11.690Z,0
2018-09-21T03:06:43.763Z,0
2018-09-21T03:07:15.885Z,0
2018-09-21T03:07:47.938Z,0
2018-09-21T03:08:19.964Z,0
2018-09-21T03:08:52.002Z,0
2018-09-21T03:09:24.070Z,0
2018-09-21T03:09:56.140Z,0
2018-09-21T03:10:28.325Z,0
2018-09-21T03:11:00.332Z,0
2018-09-21T03:11:32.324Z,0
2018-09-21T03:12:04.396Z,0
2018-09-21T03:12:36.550Z,0
2018-09-21T03:13:08.784Z,0
2018-09-21T03:13:40.811Z,0
2018-09-21T03:14:12.958Z,0
2018-09-21T03:14:45.100Z,0
2018-09-21T03:15:17.143Z,0
2018-09-21T03:15:49.194Z,0
2018-09-21T03:16:21.284Z,0
2018-09-21T03:16:53.312Z,0
2018-09-21T03:17:25.371Z,0
2018-09-21T03:17:57.406Z,0
2018-09-21T03:18:29.480Z,0
2018-09-21T03:19:01.543Z,0
2018-09-21T03:19:33.626Z,0
2018-09-21T03:20:05.722Z,0
2018-09-21T03:20:37.776Z,0
2018-09-21T03:21:09.855Z,0
2018-09-21T03:21:41.916Z,0
2018-09-21T03:22:14.014Z,0
2018-09-21T03:22:46.111Z,0
2018-09-21T03:23:18.181Z,0
2018-09-21T03:23:50.233Z,0
2018-09-21T03:24:22.296Z,0
2018-09-21T03:24:54.389Z,0
2018-09-21T03:25:26.477Z,0
2018-09-21T03:25:58.629Z,0
2018-09-21T03:26:30.704Z,0
2018-09-21T03:27:02.753Z,0
2018-09-21T03:27:34.860Z,0
2018-09-21T03:28:06.901Z,0
2018-09-21T03:28:39.058Z,0
2018-09-21T03:29:11.190Z,0
2018-09-21T03:29:43.326Z,0
2018-09-21T03:30:15.346Z,0
2018-09-21T03:30:47.434Z,0
2018-09-21T03:31:19.500Z,0
2018-09-21T03:31:51.636Z,0
2018-09-21T03:32:23.820Z,0
2018-09-21T03:32:55.918Z,0
2018-09-21T03:33:28.036Z,0
2018-09-21T03:34:00.077Z,0
2018-09-21T03:34:32.203Z,0
2018-09-21T03:35:04.932Z,0
2018-09-21T03:35:37.039Z,0
2018-09-21T03:36:09.121Z,0
2018-09-21T03:36:41.144Z,0
2018-09-21T03:37:13.232Z,0
2018-09-21T03:37:45.289Z,0
2018-09-21T03:38:17.328Z,0
2018-09-21T03:38:49.438Z,0
2018-09-21T03:39:21.533Z,0
2018-09-21T03:39:53.592Z,0
2018-09-21T03:40:25.674Z,0
2018-09-21T03:40:57.740Z,0
2018-09-21T03:41:29.804Z,0
2018-09-21T03:42:01.865Z,0
2018-09-21T03:42:33.932Z,0
2018-09-21T03:43:05.949Z,0
2018-09-21T03:43:38.024Z,0
2018-09-21T03:44:10.080Z,0
2018-09-21T03:44:42.307Z,0
2018-09-21T03:45:14.431Z,0
2018-09-21T03:45:46.529Z,0
2018-09-21T03:46:18.591Z,0
2018-09-21T03:46:50.671Z,0
2018-09-21T03:47:22.732Z,0
2018-09-21T03:47:54.809Z,0
2018-09-21T03:48:26.911Z,0
2018-09-21T03:48:58.951Z,0
2018-09-21T03:49:31.006Z,0
2018-09-21T03:50:03.091Z,0
2018-09-21T03:50:35.169Z,0
2018-09-21T03:51:07.253Z,0
2018-09-21T03:51:39.371Z,0
2018-09-21T03:52:11.479Z,0
2018-09-21T03:52:43.515Z,0
2018-09-21T03:53:15.575Z,0
2018-09-21T03:53:47.665Z,0
2018-09-21T03:54:19.765Z,0
2018-09-21T03:54:51.792Z,0
2018-09-21T03:55:24.558Z,0
2018-09-21T03:55:56.591Z,0
2018-09-21T03:56:28.689Z,0
2018-09-21T03:57:00.710Z,0
2018-09-21T03:57:32.793Z,0
2018-09-21T03:58:04.854Z,0
2018-09-21T03:58:36.985Z,0
2018-09-21T03:59:09.029Z,0
2018-09-21T03:59:41.070Z,0
2018-09-21T04:00:13.137Z,0
2018-09-21T04:00:45.307Z,0
2018-09-21T04:01:17.485Z,0
2018-09-21T04:01:49.586Z,0
2018-09-21T04:02:21.669Z,0
2018-09-21T04:02:53.696Z,0
2018-09-21T04:03:26.566Z,0
2018-09-21T04:03:58.631Z,0
2018-09-21T04:04:30.734Z,0
2018-09-21T04:05:02.841Z,0
2018-09-21T04:05:34.939Z,0
2018-09-21T04:06:07.122Z,0
2018-09-21T04:06:39.165Z,0
2018-09-21T04:07:11.191Z,0
2018-09-21T04:07:43.195Z,0
2018-09-21T04:08:15.225Z,0
2018-09-21T04:08:47.272Z,0
2018-09-21T04:09:19.354Z,0
2018-09-21T04:09:51.415Z,0
2018-09-21T04:10:23.499Z,0
2018-09-21T04:10:55.615Z,0
2018-09-21T04:11:27.710Z,0
2018-09-21T04:11:59.787Z,0
2018-09-21T04:12:31.852Z,0
2018-09-21T04:13:03.887Z,0
2018-09-21T04:13:35.948Z,0
2018-09-21T04:14:08.119Z,0
2018-09-21T04:14:40.263Z,0
2018-09-21T04:15:12.302Z,0
2018-09-21T04:15:44.352Z,0
2018-09-21T04:16:16.371Z,0
2018-09-21T04:16:48.444Z,0
2018-09-21T04:17:20.653Z,0
2018-09-21T04:17:52.771Z,0
2018-09-21T04:18:25.834Z,0
2018-09-21T04:18:57.960Z,0
2018-09-21T04:19:30.039Z,0
2018-09-21T04:20:02.092Z,0
2018-09-21T04:20:34.130Z,0
2018-09-21T04:21:06.213Z,0
2018-09-21T04:21:38.303Z,0
2018-09-21T04:22:10.297Z,0
2018-09-21T04:22:42.338Z,0
2018-09-21T04:23:14.518Z,0
2018-09-21T04:23:46.517Z,0
2018-09-21T04:24:18.605Z,0
2018-09-21T04:24:50.619Z,0
2018-09-21T04:25:22.666Z,0
2018-09-21T04:25:54.731Z,0
2018-09-21T04:26:26.811Z,0
2018-09-21T04:26:58.881Z,0
2018-09-21T04:27:30.867Z,0
2018-09-21T04:28:02.944Z,0
2018-09-21T04:28:35.030Z,0
2018-09-21T04:29:07.147Z,0
2018-09-21T04:29:39.286Z,0
2018-09-21T04:30:11.328Z,0
2018-09-21T04:30:43.421Z,0
2018-09-21T04:31:15.438Z,0
2018-09-21T04:31:47.592Z,0
2018-09-21T04:32:19.680Z,0
2018-09-21T04:32:51.768Z,0
2018-09-21T04:33:23.855Z,0
2018-09-21T04:33:55.972Z,0
2018-09-21T04:34:28.048Z,0
2018-09-21T04:35:00.096Z,0
2018-09-21T04:35:32.166Z,0
2018-09-21T04:36:04.304Z,0
2018-09-21T04:36:36.397Z,0
2018-09-21T04:37:08.568Z,0
2018-09-21T04:37:40.640Z,0
2018-09-21T04:38:12.716Z,0
2018-09-21T04:38:44.777Z,0
2018-09-21T04:39:16.827Z,0
2018-09-21T04:39:48.883Z,0
2018-09-21T04:40:20.880Z,0
2018-09-21T04:40:52.968Z,0
2018-09-21T04:41:25.121Z,0
2018-09-21T04:41:57.225Z,0
2018-09-21T04:42:29.319Z,0
2018-09-21T04:43:01.377Z,0
2018-09-21T04:43:33.438Z,0
2018-09-21T04:44:05.470Z,0
2018-09-21T04:44:37.482Z,0
2018-09-21T04:45:09.559Z,0
2018-09-21T04:45:41.653Z,0
2018-09-21T04:46:13.704Z,0
2018-09-21T04:46:45.763Z,0
2018-09-21T04:47:17.888Z,0
2018-09-21T04:47:49.942Z,0
2018-09-21T04:48:22.105Z,0
2018-09-21T04:48:54.188Z,4
2018-09-21T04:49:26.266Z,4
2018-09-21T04:49:58.350Z,4
2018-09-21T04:50:30.426Z,4
2018-09-21T04:51:02.489Z,0
2018-09-21T04:51:34.518Z,0
2018-09-21T04:52:06.586Z,4
2018-09-21T04:52:38.670Z,4
2018-09-21T04:53:10.807Z,4
2018-09-21T04:53:42.888Z,4
2018-09-21T04:54:14.980Z,8
2018-09-21T04:54:47.062Z,4
2018-09-21T04:55:19.131Z,4
2018-09-21T04:55:51.210Z,8
2018-09-21T04:56:23.287Z,4
2018-09-21T04:56:55.377Z,8
2018-09-21T04:57:28.190Z,8
2018-09-21T04:58:00.233Z,8
2018-09-21T04:58:32.330Z,8
2018-09-21T04:59:04.387Z,12
2018-09-21T04:59:36.461Z,8
2018-09-21T05:00:08.568Z,12
2018-09-21T05:00:40.590Z,12
2018-09-21T05:01:12.660Z,12
2018-09-21T05:01:44.736Z,12
2018-09-21T05:02:16.794Z,16
2018-09-21T05:02:48.819Z,12
2018-09-21T05:03:20.899Z,12
2018-09-21T05:03:52.920Z,16
2018-09-21T05:04:25.148Z,16
2018-09-21T05:04:57.196Z,16
2018-09-21T05:05:29.221Z,20
2018-09-21T05:06:01.231Z,20
2018-09-21T05:06:33.259Z,24
2018-09-21T05:07:05.310Z,24
2018-09-21T05:07:37.327Z,24
2018-09-21T05:08:09.353Z,24
2018-09-21T05:08:41.476Z,28
2018-09-21T05:09:13.562Z,28
2018-09-21T05:09:45.646Z,28
2018-09-21T05:10:17.679Z,32
2018-09-21T05:10:49.712Z,32
2018-09-21T05:11:21.759Z,32
2018-09-21T05:11:53.820Z,36
2018-09-21T05:12:26.617Z,32
2018-09-21T05:12:58.658Z,36
2018-09-21T05:13:30.703Z,36
2018-09-21T05:14:02.813Z,40
2018-09-21T05:14:34.917Z,40
2018-09-21T05:15:06.966Z,44
2018-09-21T05:15:39.073Z,48
2018-09-21T05:16:11.270Z,52
2018-09-21T05:16:43.350Z,52
2018-09-21T05:17:15.407Z,56
2018-09-21T05:17:47.471Z,60
2018-09-21T05:18:20.064Z,64
2018-09-21T05:18:52.228Z,64
2018-09-21T05:19:24.345Z,68
2018-09-21T05:19:56.490Z,72
2018-09-21T05:20:28.489Z,76
2018-09-21T05:21:00.562Z,76
2018-09-21T05:21:32.689Z,80
2018-09-21T05:22:04.755Z,84
2018-09-21T05:22:36.841Z,88
2018-09-21T05:23:08.874Z,88
2018-09-21T05:23:40.915Z,92
2018-09-21T05:24:12.978Z,92
2018-09-21T05:24:45.001Z,96
2018-09-21T05:25:17.042Z,100
2018-09-21T05:25:49.081Z,104
2018-09-21T05:26:21.189Z,104
2018-09-21T05:26:53.415Z,112
2018-09-21T05:27:25.692Z,116
2018-09-21T05:27:57.710Z,120
2018-09-21T05:28:29.723Z,120
2018-09-21T05:29:01.836Z,128
2018-09-21T05:29:34.026Z,136
2018-09-21T05:30:06.176Z,140
2018-09-21T05:30:38.250Z,144
2018-09-21T05:31:10.315Z,152
2018-09-21T05:31:42.351Z,160
2018-09-21T05:32:14.403Z,164
2018-09-21T05:32:46.464Z,168
2018-09-21T05:33:18.534Z,172
2018-09-21T05:33:50.627Z,176
2018-09-21T05:34:22.751Z,180
2018-09-21T05:34:54.850Z,184
2018-09-21T05:35:26.970Z,188
2018-09-21T05:35:59.877Z,196
2018-09-21T05:36:31.907Z,196
2018-09-21T05:37:04.129Z,204
2018-09-21T05:37:36.251Z,212
2018-09-21T05:38:08.471Z,216
2018-09-21T05:38:40.635Z,224
2018-09-21T05:39:12.664Z,232
2018-09-21T05:39:44.756Z,240
2018-09-21T05:40:16.813Z,252
2018-09-21T05:40:48.891Z,260
2018-09-21T05:41:21.049Z,276
2018-09-21T05:41:53.174Z,288
2018-09-21T05:42:25.246Z,304
2018-09-21T05:42:57.448Z,320
2018-09-21T05:43:29.581Z,332
2018-09-21T05:44:01.729Z,344
2018-09-21T05:44:33.780Z,356
2018-09-21T05:45:05.846Z,364
2018-09-21T05:45:37.978Z,376
2018-09-21T05:46:10.068Z,372
2018-09-21T05:46:43.743Z,372
2018-09-21T05:47:18.548Z,376
2018-09-21T05:47:50.704Z,380
2018-09-21T05:48:22.783Z,388
2018-09-21T05:48:54.950Z,392
2018-09-21T05:49:27.022Z,396
2018-09-21T05:49:59.004Z,404
2018-09-21T05:50:31.132Z,412
2018-09-21T05:51:03.125Z,424
2018-09-21T05:51:35.242Z,428
2018-09-21T05:52:07.338Z,440
2018-09-21T05:52:39.382Z,448
2018-09-21T05:53:11.449Z,456
2018-09-21T05:53:44.298Z,460
2018-09-21T05:54:16.332Z,468
2018-09-21T05:54:48.357Z,468
2018-09-21T05:55:20.465Z,464
2018-09-21T05:55:52.525Z,452
2018-09-21T05:56:24.743Z,448
2018-09-21T05:56:56.843Z,444
2018-09-21T05:57:28.961Z,440
2018-09-21T05:58:01.092Z,444
2018-09-21T05:58:33.164Z,448
2018-09-21T05:59:05.187Z,452
2018-09-21T05:59:37.231Z,456
2018-09-21T06:00:09.286Z,460
2018-09-21T06:00:42.234Z,468
2018-09-21T06:01:14.327Z,472
2018-09-21T06:01:46.365Z,492
2018-09-21T06:02:18.524Z,540
2018-09-21T06:02:50.695Z,644
2018-09-21T06:03:22.729Z,736
2018-09-21T06:03:54.815Z,852
2018-09-21T06:04:26.875Z,852
2018-09-21T06:04:58.959Z,836
2018-09-21T06:05:31.060Z,616
2018-09-21T06:06:03.090Z,544
2018-09-21T06:06:35.157Z,456
2018-09-21T06:07:07.239Z,392
2018-09-21T06:07:39.412Z,372
2018-09-21T06:08:11.513Z,364
2018-09-21T06:08:43.562Z,372
2018-09-21T06:09:15.618Z,380
2018-09-21T06:09:47.812Z,444
2018-09-21T06:10:19.810Z,580
2018-09-21T06:10:51.994Z,576
2018-09-21T06:11:23.978Z,596
2018-09-21T06:11:56.171Z,704
2018-09-21T06:12:28.281Z,544
2018-09-21T06:13:00.305Z,480
2018-09-21T06:13:32.401Z,464
2018-09-21T06:14:04.471Z,456
2018-09-21T06:14:36.537Z,460
2018-09-21T06:15:08.631Z,468
2018-09-21T06:15:40.773Z,476
2018-09-21T06:16:12.842Z,488
2018-09-21T06:16:44.901Z,496
2018-09-21T06:17:16.963Z,512
2018-09-21T06:17:49.009Z,540
2018-09-21T06:18:21.042Z,688
2018-09-21T06:18:53.099Z,716
2018-09-21T06:19:25.319Z,536
2018-09-21T06:19:57.435Z,508
2018-09-21T06:20:29.548Z,520
2018-09-21T06:21:01.667Z,540
2018-09-21T06:21:33.664Z,516
2018-09-21T06:22:05.759Z,496
2018-09-21T06:22:45.035Z,492
2018-09-21T06:23:09.906Z,492
2018-09-21T06:23:41.934Z,492
2018-09-21T06:24:13.993Z,504
2018-09-21T06:24:46.052Z,496
2018-09-21T06:25:18.127Z,500
2018-09-21T06:25:50.203Z,512
2018-09-21T06:26:22.240Z,532
2018-09-21T06:26:54.484Z,556
2018-09-21T06:27:26.612Z,584
2018-09-21T06:27:58.631Z,612
2018-09-21T06:28:30.715Z,636
2018-09-21T06:29:02.803Z,664
2018-09-21T06:29:34.872Z,680
2018-09-21T06:30:06.905Z,692
2018-09-21T06:30:38.947Z,704
2018-09-21T06:31:11.025Z,704
2018-09-21T06:31:43.093Z,704
2018-09-21T06:32:15.151Z,696
2018-09-21T06:32:47.324Z,692
2018-09-21T06:33:19.398Z,680
2018-09-21T06:33:51.453Z,668
2018-09-21T06:34:23.497Z,660
2018-09-21T06:34:55.511Z,652
2018-09-21T06:35:27.672Z,644
2018-09-21T06:35:59.798Z,640
2018-09-21T06:36:32.024Z,640
2018-09-21T06:37:04.078Z,640
2018-09-21T06:37:36.173Z,640
2018-09-21T06:38:08.230Z,644
2018-09-21T06:38:40.277Z,652
2018-09-21T06:39:12.295Z,664
2018-09-21T06:39:44.373Z,672
2018-09-21T06:40:16.425Z,696
2018-09-21T06:40:48.469Z,728
2018-09-21T06:41:20.524Z,752
2018-09-21T06:41:52.730Z,780
2018-09-21T06:42:24.859Z,788
2018-09-21T06:42:57.008Z,808
2018-09-21T06:43:29.073Z,836
2018-09-21T06:44:01.281Z,868
2018-09-21T06:44:33.359Z,896
2018-09-21T06:45:05.503Z,924
2018-09-21T06:45:37.580Z,952
2018-09-21T06:46:09.652Z,972
2018-09-21T06:46:41.764Z,1000
2018-09-21T06:47:13.903Z,1016
2018-09-21T06:47:46.016Z,1036
2018-09-21T06:48:18.103Z,1056
2018-09-21T06:48:50.170Z,1076
2018-09-21T06:49:22.265Z,1088
2018-09-21T06:49:54.460Z,1104
2018-09-21T06:50:26.517Z,1112
2018-09-21T06:50:58.573Z,1128
2018-09-21T06:51:30.635Z,1144
2018-09-21T06:52:02.704Z,1152
2018-09-21T06:52:34.816Z,1172
2018-09-21T06:53:06.850Z,1184
2018-09-21T06:53:38.866Z,1200
2018-09-21T06:54:10.885Z,1220
2018-09-21T06:54:43.844Z,1232
2018-09-21T06:55:15.887Z,1244
2018-09-21T06:55:47.991Z,1244
2018-09-21T06:56:20.127Z,1244
2018-09-21T06:56:52.269Z,1248
2018-09-21T06:57:24.417Z,1248
2018-09-21T06:57:56.480Z,1256
2018-09-21T06:58:28.544Z,1252
2018-09-21T06:59:01.514Z,1252
2018-09-21T06:59:33.565Z,1260
2018-09-21T07:00:05.689Z,1264
2018-09-21T07:00:37.704Z,1260
2018-09-21T07:01:09.829Z,1260
2018-09-21T07:01:41.917Z,1276
2018-09-21T07:02:13.957Z,1268
2018-09-21T07:02:45.993Z,1276
2018-09-21T07:03:18.059Z,1284
2018-09-21T07:03:50.102Z,1300
2018-09-21T07:04:22.131Z,1312
2018-09-21T07:04:54.192Z,1340
2018-09-21T07:05:26.321Z,1344
2018-09-21T07:05:58.419Z,1368
2018-09-21T07:06:30.599Z,1428
2018-09-21T07:07:02.685Z,1504
2018-09-21T07:07:34.742Z,1472
2018-09-21T07:08:06.841Z,1496
2018-09-21T07:08:38.829Z,1580
2018-09-21T07:09:11.155Z,1588
2018-09-21T07:09:43.210Z,1524
2018-09-21T07:10:15.342Z,1580
2018-09-21T07:10:47.355Z,1444
2018-09-21T07:11:19.434Z,1372
2018-09-21T07:11:51.502Z,1368
2018-09-21T07:12:23.612Z,1388
2018-09-21T07:12:55.793Z,1404
2018-09-21T07:13:27.869Z,1424
2018-09-21T07:13:59.942Z,1452
2018-09-21T07:14:31.998Z,1500
2018-09-21T07:15:04.291Z,1520
2018-09-21T07:15:36.414Z,1536
2018-09-21T07:16:08.607Z,1564
2018-09-21T07:16:41.569Z,1608
2018-09-21T07:17:13.711Z,1676
2018-09-21T07:17:45.786Z,1728
2018-09-21T07:18:17.849Z,1768
2018-09-21T07:18:49.904Z,1844
2018-09-21T07:19:21.974Z,1956
2018-09-21T07:19:54.032Z,2024
2018-09-21T07:20:26.149Z,2104
2018-09-21T07:20:58.201Z,2320
2018-09-21T07:21:30.352Z,2632
2018-09-21T07:22:02.387Z,2692
2018-09-21T07:22:34.476Z,2416
2018-09-21T07:23:06.512Z,2400
2018-09-21T07:23:38.601Z,2120
2018-09-21T07:24:10.718Z,1976
2018-09-21T07:24:42.786Z,1948
2018-09-21T07:25:14.823Z,1924
2018-09-21T07:25:46.903Z,1928
2018-09-21T07:26:18.954Z,1920
2018-09-21T07:26:51.810Z,1948
2018-09-21T07:27:23.924Z,2188
2018-09-21T07:27:55.977Z,2484
2018-09-21T07:28:28.009Z,2708
2018-09-21T07:29:00.068Z,2644
2018-09-21T07:29:32.223Z,3016
2018-09-21T07:30:04.237Z,2780
2018-09-21T07:30:36.305Z,2864
2018-09-21T07:31:08.467Z,2452
2018-09-21T07:31:40.545Z,2380
2018-09-21T07:32:12.624Z,2480
2018-09-21T07:32:45.243Z,2536
2018-09-21T07:33:17.435Z,2412
2018-09-21T07:33:49.560Z,2756
2018-09-21T07:34:21.608Z,2532
2018-09-21T07:34:53.761Z,2376
2018-09-21T07:35:25.853Z,2428
2018-09-21T07:35:57.927Z,2552
2018-09-21T07:36:30.087Z,2676
2018-09-21T07:37:02.106Z,2856
2018-09-21T07:37:34.281Z,3112
2018-09-21T07:38:06.389Z,2960
2018-09-21T07:38:38.489Z,2932
2018-09-21T07:39:10.522Z,2892
2018-09-21T07:39:42.577Z,2480
2018-09-21T07:40:14.590Z,2540
2018-09-21T07:40:46.700Z,2352
2018-09-21T07:41:18.699Z,2360